Time;durP1;ratioP1;P1;durP2;ratioP2;P2;SDS_P1;SDS_P2;PMS_P1;PMS_P2;Temp;Humidity;BMP_temperature;BMP_pressure;BME280_temperature;BME280_humidity;BME280_pressure;Samples;Min_cycle;Max_cycle;Signal;HPM_P1;HPM_P2
2021/09/09 00:00:04;;;;;;;16.27;11.38;;;20.70;72.50;;;;;;5014483;28;20029;-78
2021/09/09 00:02:30;;;;;;;13.88;10.02;;;20.60;72.60;;;;;;5015862;28;20441;-79
2021/09/09 00:04:55;;;;;;;16.48;11.45;;;20.60;72.80;;;;;;5030936;28;20037;-77
2021/09/09 00:07:21;;;;;;;16.25;10.80;;;20.60;73.00;;;;;;5015869;28;20037;-77
2021/09/09 00:09:47;;;;;;;15.73;11.07;;;20.60;73.10;;;;;;5015848;28;20096;-77
2021/09/09 00:12:12;;;;;;;17.38;11.60;;;20.50;73.20;;;;;;5015816;28;20049;-77
2021/09/09 00:14:38;;;;;;;18.13;12.32;;;20.40;73.30;;;;;;5015602;28;20036;-77
2021/09/09 00:17:04;;;;;;;16.13;11.25;;;20.40;73.30;;;;;;5014372;28;20509;-77
2021/09/09 00:19:29;;;;;;;17.08;12.55;;;20.40;73.40;;;;;;5015612;28;20384;-77
2021/09/09 00:21:55;;;;;;;15.35;10.75;;;20.40;73.50;;;;;;5030675;28;20033;-77
2021/09/09 00:24:21;;;;;;;16.20;12.73;;;20.30;73.70;;;;;;5015385;28;20406;-78
2021/09/09 00:26:46;;;;;;;15.23;11.48;;;20.30;73.80;;;;;;5014416;28;20803;-78
2021/09/09 00:29:12;;;;;;;21.30;12.80;;;20.20;74.00;;;;;;5015496;28;20037;-78
2021/09/09 00:31:37;;;;;;;18.73;12.43;;;20.20;74.10;;;;;;4997844;28;20030;-77
2021/09/09 00:34:03;;;;;;;16.55;11.48;;;20.20;74.30;;;;;;5015502;28;20087;-77
2021/09/09 00:36:29;;;;;;;19.05;12.68;;;20.10;74.30;;;;;;5014161;28;20129;-79
2021/09/09 00:38:54;;;;;;;18.00;12.52;;;20.10;74.50;;;;;;5014347;28;20172;-77
2021/09/09 00:41:22;;;;;;;18.13;12.27;;;20.10;74.50;;;;;;5015306;28;20044;-77
2021/09/09 00:43:47;;;;;;;16.58;12.15;;;20.00;74.60;;;;;;4997999;28;20113;-77
2021/09/09 00:46:13;;;;;;;19.13;11.75;;;20.00;74.70;;;;;;5015259;28;20117;-78
2021/09/09 00:48:39;;;;;;;21.92;12.15;;;20.00;74.80;;;;;;5014979;28;20467;-77
2021/09/09 00:51:04;;;;;;;17.95;13.23;;;20.00;74.80;;;;;;5013956;28;20030;-77
2021/09/09 00:53:30;;;;;;;17.52;12.60;;;19.90;74.90;;;;;;5013742;28;20033;-77
2021/09/09 00:55:56;;;;;;;17.48;13.32;;;19.90;74.90;;;;;;4997526;28;20042;-77
2021/09/09 00:58:22;;;;;;;18.25;12.85;;;19.90;75.00;;;;;;5013817;28;20034;-77
2021/09/09 01:00:47;;;;;;;18.50;12.18;;;19.90;75.00;;;;;;5013855;28;20053;-77
2021/09/09 01:03:13;;;;;;;19.80;13.40;;;19.80;75.00;;;;;;5014988;28;20414;-77
2021/09/09 01:05:39;;;;;;;17.77;12.23;;;19.80;75.10;;;;;;5013606;28;20109;-77
2021/09/09 01:08:06;;;;;;;19.63;13.98;;;19.80;75.20;;;;;;4997260;28;20026;-77
2021/09/09 01:10:33;;;;;;;20.08;13.95;;;19.80;75.90;;;;;;5013228;28;20026;-77
2021/09/09 01:12:59;;;;;;;16.63;12.52;;;19.70;75.40;;;;;;5014804;28;20083;-76
2021/09/09 01:15:25;;;;;;;18.60;13.20;;;19.70;75.50;;;;;;5014738;28;20112;-77
2021/09/09 01:17:51;;;;;;;17.95;12.93;;;19.70;75.60;;;;;;5013298;28;20036;-78
2021/09/09 01:20:17;;;;;;;18.52;12.70;;;19.60;75.70;;;;;;5013322;28;20041;-77
2021/09/09 01:22:43;;;;;;;18.45;13.48;;;19.60;75.90;;;;;;5029777;28;20026;-77
2021/09/09 01:25:10;;;;;;;19.70;14.07;;;19.60;76.00;;;;;;5010900;28;20486;-77
2021/09/09 01:27:36;;;;;;;18.35;13.45;;;19.60;76.00;;;;;;5014158;28;20495;-77
2021/09/09 01:30:03;;;;;;;20.15;13.70;;;19.50;76.00;;;;;;5014380;28;20065;-77
2021/09/09 01:32:29;;;;;;;18.30;13.40;;;19.50;76.20;;;;;;5011397;28;20034;-77
2021/09/09 01:34:54;;;;;;;19.60;13.23;;;19.50;76.30;;;;;;5014002;28;20029;-77
2021/09/09 01:37:20;;;;;;;20.50;14.30;;;19.40;76.50;;;;;;5014197;28;20038;-77
2021/09/09 01:39:47;;;;;;;18.77;13.90;;;19.40;76.60;;;;;;5013916;28;20030;-77
2021/09/09 01:42:13;;;;;;;18.55;13.25;;;19.40;76.80;;;;;;5009066;28;20080;-77
2021/09/09 01:44:39;;;;;;;18.48;12.63;;;19.30;76.80;;;;;;5012701;28;20033;-77
2021/09/09 01:47:05;;;;;;;17.95;13.15;;;19.40;77.10;;;;;;5014257;28;20034;-77
2021/09/09 01:49:31;;;;;;;18.90;13.02;;;19.40;77.00;;;;;;5010117;28;20037;-77
2021/09/09 01:51:57;;;;;;;18.90;12.93;;;19.30;77.10;;;;;;5009161;28;20023;-76
2021/09/09 01:54:23;;;;;;;18.80;13.65;;;19.30;77.20;;;;;;4994278;28;20474;-78
2021/09/09 01:56:49;;;;;;;21.00;13.88;;;19.20;77.20;;;;;;4994009;28;20038;-77
2021/09/09 01:59:15;;;;;;;19.73;14.00;;;19.20;77.30;;;;;;4994242;28;20037;-77
2021/09/09 02:01:41;;;;;;;24.40;14.43;;;19.10;77.40;;;;;;4994350;28;20053;-77
2021/09/09 02:04:06;;;;;;;19.17;12.68;;;19.10;77.60;;;;;;4994195;28;20023;-76
2021/09/09 02:06:33;;;;;;;18.67;13.15;;;19.10;77.80;;;;;;5009331;28;20514;-78
2021/09/09 02:08:59;;;;;;;18.15;13.65;;;19.10;77.90;;;;;;4994023;28;20022;-77
2021/09/09 02:11:25;;;;;;;17.40;13.88;;;19.10;78.00;;;;;;5009064;28;20026;-77
2021/09/09 02:13:52;;;;;;;19.58;14.68;;;19.00;78.10;;;;;;5009105;28;20161;-77
2021/09/09 02:16:18;;;;;;;20.65;14.50;;;19.00;78.30;;;;;;4976631;28;20026;-77
2021/09/09 02:18:44;;;;;;;20.70;14.10;;;18.90;78.40;;;;;;4992894;28;20038;-77
2021/09/09 02:21:10;;;;;;;20.95;13.80;;;18.90;78.50;;;;;;4992812;28;20031;-77
2021/09/09 02:23:35;;;;;;;23.55;15.32;;;18.90;78.60;;;;;;4992029;28;20141;-76
2021/09/09 02:26:01;;;;;;;18.65;13.80;;;18.90;78.60;;;;;;5008927;28;20458;-77
2021/09/09 02:28:27;;;;;;;18.67;13.90;;;18.80;78.60;;;;;;5008782;28;20050;-77
2021/09/09 02:30:52;;;;;;;17.58;13.38;;;18.80;78.60;;;;;;4976520;28;20467;-77
2021/09/09 02:33:18;;;;;;;22.52;15.00;;;18.80;78.50;;;;;;4992686;28;20022;-76
2021/09/09 02:35:44;;;;;;;21.38;13.93;;;18.80;78.60;;;;;;4992599;28;20037;-76
2021/09/09 02:38:12;;;;;;;20.67;14.75;;;18.80;78.70;;;;;;4993751;28;20034;-76
2021/09/09 02:40:37;;;;;;;22.27;15.32;;;18.70;78.70;;;;;;5008925;28;20066;-76
2021/09/09 02:43:03;;;;;;;20.52;14.15;;;18.70;78.90;;;;;;4993774;28;20069;-76
2021/09/09 02:45:29;;;;;;;19.02;14.15;;;18.70;79.10;;;;;;4993583;28;20047;-76
2021/09/09 02:47:55;;;;;;;19.63;14.50;;;18.60;79.20;;;;;;5011937;28;20053;-77
2021/09/09 02:50:20;;;;;;;22.02;14.13;;;18.70;79.30;;;;;;5013643;28;20109;-76
2021/09/09 02:52:46;;;;;;;19.30;14.43;;;18.60;79.40;;;;;;5013411;28;20445;-77
2021/09/09 02:55:12;;;;;;;21.30;14.75;;;18.60;79.30;;;;;;5012043;28;20037;-77
2021/09/09 02:57:38;;;;;;;21.30;15.52;;;18.50;79.40;;;;;;5013472;28;20446;-77
2021/09/09 03:00:05;;;;;;;19.77;14.68;;;18.50;79.50;;;;;;5011406;28;20048;-77
2021/09/09 03:02:31;;;;;;;20.08;14.35;;;18.40;79.70;;;;;;5012784;28;20030;-77
2021/09/09 03:04:56;;;;;;;20.20;14.57;;;18.40;79.80;;;;;;5013118;28;20037;-77
2021/09/09 03:07:22;;;;;;;21.23;15.30;;;18.40;79.80;;;;;;5012745;28;20053;-77
2021/09/09 03:09:48;;;;;;;20.40;14.90;;;18.40;80.00;;;;;;5028211;28;20192;-77
2021/09/09 03:12:13;;;;;;;21.42;14.68;;;18.40;80.00;;;;;;5013168;28;20065;-77
2021/09/09 03:14:39;;;;;;;23.83;15.30;;;18.40;80.10;;;;;;5012882;28;20061;-77
2021/09/09 03:17:05;;;;;;;21.48;15.48;;;18.30;80.10;;;;;;5013038;28;20508;-77
2021/09/09 03:19:31;;;;;;;19.00;15.20;;;18.30;80.20;;;;;;4995481;28;20026;-77
2021/09/09 03:21:56;;;;;;;22.60;15.07;;;18.30;80.40;;;;;;5028121;28;20415;-77
2021/09/09 03:24:22;;;;;;;20.65;14.88;;;18.30;80.60;;;;;;5012760;28;20545;-77
2021/09/09 03:26:49;;;;;;;23.05;15.50;;;18.30;80.60;;;;;;5011613;28;20509;-77
2021/09/09 03:29:15;;;;;;;21.10;15.15;;;18.20;80.50;;;;;;5012883;28;20040;-77
2021/09/09 03:31:41;;;;;;;18.92;14.20;;;18.20;80.70;;;;;;5012927;28;20030;-77
2021/09/09 03:34:06;;;;;;;19.75;14.70;;;18.20;80.70;;;;;;5013980;28;20081;-77
2021/09/09 03:36:32;;;;;;;27.35;16.35;;;18.20;80.80;;;;;;5011001;28;20065;-77
2021/09/09 03:38:58;;;;;;;20.85;15.52;;;18.20;81.00;;;;;;5030385;28;20046;-76
2021/09/09 03:41:23;;;;;;;19.65;14.85;;;18.20;81.10;;;;;;5007567;28;20046;-77
2021/09/09 03:43:49;;;;;;;23.52;16.95;;;18.20;81.10;;;;;;5016659;28;20038;-76
2021/09/09 03:46:14;;;;;;;22.15;15.27;;;18.20;81.50;;;;;;5014493;28;20044;-77
2021/09/09 03:48:40;;;;;;;25.23;16.92;;;18.10;81.30;;;;;;5016078;28;20038;-77
2021/09/09 03:51:06;;;;;;;24.20;16.52;;;18.10;81.30;;;;;;5015873;28;20030;-76
2021/09/09 03:53:32;;;;;;;23.30;16.52;;;18.10;81.50;;;;;;5016301;28;20427;-77
2021/09/09 03:55:57;;;;;;;21.58;15.68;;;18.00;81.50;;;;;;5016222;28;20399;-76
2021/09/09 03:58:23;;;;;;;24.17;16.38;;;18.00;81.50;;;;;;5031216;28;20116;-77
2021/09/09 04:00:49;;;;;;;23.00;16.85;;;18.00;81.60;;;;;;5015008;28;20073;-76
2021/09/09 04:03:14;;;;;;;21.33;15.85;;;18.00;81.70;;;;;;5014744;28;20121;-76
2021/09/09 04:05:40;;;;;;;25.80;16.30;;;17.90;81.80;;;;;;5014884;28;20029;-77
2021/09/09 04:08:07;;;;;;;24.90;16.83;;;17.90;81.80;;;;;;5015787;28;20041;-76
2021/09/09 04:10:33;;;;;;;22.10;15.20;;;17.90;81.90;;;;;;5031025;28;20045;-77
2021/09/09 04:12:59;;;;;;;24.23;16.20;;;17.90;82.00;;;;;;5015909;28;20038;-77
2021/09/09 04:15:25;;;;;;;21.80;16.15;;;17.80;82.10;;;;;;5015778;28;20048;-77
2021/09/09 04:17:50;;;;;;;20.98;15.57;;;17.90;82.40;;;;;;5015814;28;20101;-77
2021/09/09 04:20:16;;;;;;;23.95;16.02;;;17.80;82.50;;;;;;5030943;28;20371;-78
2021/09/09 04:22:42;;;;;;;23.95;15.77;;;17.80;82.60;;;;;;5015454;28;20474;-77
2021/09/09 04:25:08;;;;;;;20.70;15.80;;;17.90;82.60;;;;;;5014367;28;20122;-77
2021/09/09 04:27:34;;;;;;;23.08;15.80;;;17.80;82.60;;;;;;5015433;28;20040;-76
2021/09/09 04:30:00;;;;;;;25.15;16.75;;;17.80;82.70;;;;;;5014265;28;20108;-77
2021/09/09 04:32:25;;;;;;;23.40;16.88;;;17.80;82.80;;;;;;5014176;28;20496;-77
2021/09/09 04:34:51;;;;;;;25.42;17.67;;;17.80;82.90;;;;;;5030696;28;20030;-77
2021/09/09 04:37:17;;;;;;;25.02;16.67;;;17.70;83.00;;;;;;5015409;28;20386;-77
2021/09/09 04:39:43;;;;;;;21.27;16.35;;;17.70;83.00;;;;;;5015316;28;20034;-77
2021/09/09 04:42:09;;;;;;;22.92;16.20;;;17.70;82.90;;;;;;5015193;28;20038;-77
2021/09/09 04:44:34;;;;;;;25.52;16.70;;;17.70;83.00;;;;;;5015040;28;20041;-77
2021/09/09 04:47:00;;;;;;;22.55;17.17;;;17.70;83.10;;;;;;5019626;28;20367;-77
2021/09/09 04:49:26;;;;;;;22.50;16.23;;;17.70;83.10;;;;;;5022638;28;20367;-77
2021/09/09 04:51:51;;;;;;;27.88;17.58;;;17.70;83.20;;;;;;5026340;28;20424;-77
2021/09/09 04:54:17;;;;;;;22.80;17.45;;;17.60;83.20;;;;;;4997872;28;20386;-77
2021/09/09 04:56:43;;;;;;;23.30;17.05;;;17.60;83.20;;;;;;5007559;28;20109;-77
2021/09/09 04:59:08;;;;;;;23.95;18.08;;;17.60;83.30;;;;;;5011614;28;20540;-77
2021/09/09 05:01:34;;;;;;;23.20;17.10;;;17.60;83.40;;;;;;5014493;28;20033;-77
2021/09/09 05:04:00;;;;;;;23.15;16.38;;;17.60;83.50;;;;;;5008796;28;20062;-77
2021/09/09 05:06:25;;;;;;;22.00;15.95;;;17.60;83.50;;;;;;5011040;28;20031;-78
2021/09/09 05:08:51;;;;;;;27.08;17.67;;;17.60;83.60;;;;;;5011804;28;20038;-77
2021/09/09 05:11:17;;;;;;;23.65;17.15;;;17.60;83.70;;;;;;5014631;28;20034;-77
2021/09/09 05:13:44;;;;;;;22.73;17.25;;;17.50;84.20;;;;;;4996357;28;20433;-77
2021/09/09 05:16:10;;;;;;;24.30;16.40;;;17.50;83.50;;;;;;5002150;28;20458;-77
2021/09/09 05:18:36;;;;;;;22.83;16.60;;;17.60;83.60;;;;;;5009631;28;20088;-77
2021/09/09 05:21:01;;;;;;;25.80;17.05;;;17.50;83.50;;;;;;5011896;28;20046;-77
2021/09/09 05:23:27;;;;;;;25.27;17.27;;;17.50;83.60;;;;;;5014320;28;20057;-77
2021/09/09 05:25:53;;;;;;;24.42;16.98;;;17.50;83.60;;;;;;5013652;28;20033;-77
2021/09/09 05:28:21;;;;;;;21.13;16.65;;;17.50;83.60;;;;;;5012635;28;20091;-77
2021/09/09 05:30:55;;;;;;;32.67;18.60;;;17.50;83.60;;;;;;5012932;28;20037;-77
2021/09/09 05:33:20;;;;;;;24.25;18.20;;;17.60;83.70;;;;;;5013893;28;20037;-76
2021/09/09 05:35:47;;;;;;;23.67;16.83;;;17.50;83.70;;;;;;5012512;28;20022;-77
2021/09/09 05:38:13;;;;;;;25.88;16.83;;;17.50;83.70;;;;;;5012650;28;20382;-77
2021/09/09 05:40:39;;;;;;;24.15;17.13;;;17.60;83.70;;;;;;5013756;28;20026;-77
2021/09/09 05:43:05;;;;;;;24.20;17.90;;;17.60;83.80;;;;;;5029016;28;20100;-77
2021/09/09 05:45:31;;;;;;;25.90;17.85;;;17.60;83.80;;;;;;5016961;28;20056;-77
2021/09/09 05:47:57;;;;;;;26.67;18.48;;;17.60;83.80;;;;;;5012458;28;20033;-77
2021/09/09 05:50:22;;;;;;;27.92;18.42;;;17.60;83.80;;;;;;5014856;28;20049;-77
2021/09/09 05:52:48;;;;;;;29.02;17.67;;;17.60;83.80;;;;;;5013353;28;20466;-77
2021/09/09 05:55:15;;;;;;;23.42;17.67;;;17.60;83.80;;;;;;5013726;28;20026;-77
2021/09/09 05:57:41;;;;;;;24.77;16.52;;;17.70;83.90;;;;;;5009931;28;20034;-76
2021/09/09 06:00:10;;;;;;;27.90;19.08;;;17.70;83.80;;;;;;5011876;28;20494;-76
2021/09/09 06:02:42;;;;;;;21.60;17.30;;;17.70;83.80;;;;;;5011842;28;20124;-76
2021/09/09 06:05:09;;;;;;;29.58;18.60;;;17.70;83.80;;;;;;5013167;28;20049;-77
2021/09/09 06:07:35;;;;;;;24.50;17.83;;;17.80;83.90;;;;;;5012296;28;20542;-77
2021/09/09 06:10:01;;;;;;;27.52;17.95;;;17.80;83.90;;;;;;5012353;28;20061;-77
2021/09/09 06:12:27;;;;;;;27.25;19.38;;;17.90;83.90;;;;;;5012366;28;20356;-77
2021/09/09 06:14:53;;;;;;;22.17;17.38;;;17.90;83.90;;;;;;5012134;28;20382;-76
2021/09/09 06:17:19;;;;;;;24.23;17.50;;;17.90;83.90;;;;;;5012134;28;20045;-76
2021/09/09 06:19:44;;;;;;;23.67;18.33;;;18.00;83.80;;;;;;5013515;28;20423;-76
2021/09/09 06:22:10;;;;;;;24.88;18.10;;;18.00;83.80;;;;;;4995785;28;20030;-76
2021/09/09 06:24:36;;;;;;;23.92;18.73;;;18.00;83.70;;;;;;5011954;28;20085;-77
2021/09/09 06:27:02;;;;;;;25.38;18.55;;;18.00;83.60;;;;;;5012055;28;20486;-76
2021/09/09 06:29:27;;;;;;;27.55;18.80;;;18.10;83.70;;;;;;5010364;28;20061;-77
2021/09/09 06:31:53;;;;;;;23.67;17.88;;;18.10;83.60;;;;;;5012203;28;20022;-76
2021/09/09 06:34:18;;;;;;;25.83;17.02;;;18.10;83.50;;;;;;5022101;28;20037;-77
2021/09/09 06:36:44;;;;;;;24.15;17.58;;;18.20;83.60;;;;;;5012246;28;20367;-77
2021/09/09 06:39:10;;;;;;;22.65;16.95;;;18.20;83.50;;;;;;5011911;28;20496;-78
2021/09/09 06:41:36;;;;;;;25.13;17.17;;;18.30;83.50;;;;;;5008810;28;20033;-77
2021/09/09 06:44:02;;;;;;;25.90;18.20;;;18.30;83.40;;;;;;5027830;28;20030;-77
2021/09/09 06:46:27;;;;;;;24.25;17.98;;;18.30;83.30;;;;;;5013440;28;20458;-77
2021/09/09 06:48:53;;;;;;;23.90;17.33;;;18.30;83.20;;;;;;5002496;28;20034;-77
2021/09/09 06:51:21;;;;;;;26.23;18.63;;;18.40;83.10;;;;;;5020490;28;20034;-77
2021/09/09 06:53:47;;;;;;;25.20;17.67;;;18.40;83.00;;;;;;5012217;28;20030;-77
2021/09/09 06:56:13;;;;;;;26.77;18.88;;;18.50;83.60;;;;;;5011610;28;20069;-77
2021/09/09 06:58:38;;;;;;;23.65;16.42;;;18.50;82.90;;;;;;5012163;28;20395;-77
2021/09/09 07:01:04;;;;;;;24.38;16.88;;;18.50;82.70;;;;;;5011895;28;20494;-78
2021/09/09 07:03:30;;;;;;;23.95;17.45;;;18.60;82.60;;;;;;5005643;28;20117;-77
2021/09/09 07:05:56;;;;;;;23.02;17.60;;;18.60;82.50;;;;;;5013211;28;20386;-77
2021/09/09 07:08:22;;;;;;;23.77;17.73;;;18.60;82.30;;;;;;5028266;28;20080;-77
2021/09/09 07:10:48;;;;;;;24.00;16.75;;;18.70;82.30;;;;;;4983390;28;20030;-77
2021/09/09 07:13:17;;;;;;;23.05;17.85;;;18.70;82.10;;;;;;5015966;28;20425;-77
2021/09/09 07:15:43;;;;;;;21.27;17.20;;;18.80;82.00;;;;;;5016549;28;20463;-77
2021/09/09 07:18:09;;;;;;;21.23;16.80;;;18.80;81.90;;;;;;5017301;28;20041;-77
2021/09/09 07:20:34;;;;;;;20.95;16.52;;;18.80;81.80;;;;;;5017135;28;20034;-77
2021/09/09 07:23:00;;;;;;;21.50;15.98;;;18.90;81.80;;;;;;4999505;28;20410;-77
2021/09/09 07:25:25;;;;;;;22.77;18.60;;;18.90;81.60;;;;;;5017199;28;20497;-78
2021/09/09 07:27:51;;;;;;;23.98;18.27;;;19.00;81.70;;;;;;4999700;28;20037;-77
2021/09/09 07:30:17;;;;;;;27.63;19.73;;;19.00;81.50;;;;;;5015669;28;20025;-77
2021/09/09 07:32:42;;;;;;;23.80;18.45;;;19.10;81.20;;;;;;4999455;28;20037;-77
2021/09/09 07:35:09;;;;;;;23.27;17.50;;;19.10;81.10;;;;;;5016828;28;20533;-77
2021/09/09 07:37:34;;;;;;;24.35;17.90;;;19.20;80.90;;;;;;5017097;28;20065;-77
2021/09/09 07:40:01;;;;;;;21.35;16.92;;;19.20;80.80;;;;;;5017092;28;20058;-78
2021/09/09 07:42:26;;;;;;;23.17;18.02;;;19.20;80.80;;;;;;5016730;28;20068;-77
2021/09/09 07:44:52;;;;;;;24.40;17.85;;;19.30;81.00;;;;;;5016828;28;20030;-77
2021/09/09 07:47:17;;;;;;;24.30;17.52;;;19.40;81.20;;;;;;5016439;28;20075;-78
2021/09/09 07:49:43;;;;;;;25.17;18.17;;;19.50;81.10;;;;;;5031910;28;20033;-76
2021/09/09 07:52:09;;;;;;;21.13;17.17;;;19.50;81.00;;;;;;5032094;28;20030;-76
2021/09/09 07:54:35;;;;;;;21.58;16.00;;;19.60;81.00;;;;;;5015367;28;20030;-76
2021/09/09 07:57:00;;;;;;;23.85;16.83;;;19.60;80.80;;;;;;5014777;28;20165;-77
2021/09/09 07:59:26;;;;;;;23.00;16.67;;;19.70;80.70;;;;;;5006443;28;20042;-76
2021/09/09 08:01:52;;;;;;;23.27;17.65;;;19.70;80.70;;;;;;4995266;28;20421;-77
2021/09/09 08:04:17;;;;;;;22.27;16.85;;;19.80;80.50;;;;;;5011240;28;20027;-77
2021/09/09 08:06:44;;;;;;;22.05;16.88;;;19.90;80.40;;;;;;5011425;28;20031;-77
2021/09/09 08:09:10;;;;;;;21.45;16.85;;;19.90;80.20;;;;;;5013337;28;20029;-77
2021/09/09 08:11:36;;;;;;;20.50;15.18;;;20.00;80.20;;;;;;5014680;28;20040;-77
2021/09/09 08:14:02;;;;;;;21.98;15.43;;;20.10;80.10;;;;;;5009347;28;20112;-77
2021/09/09 08:16:28;;;;;;;22.85;15.23;;;20.10;79.80;;;;;;5016527;28;20026;-77
2021/09/09 08:18:54;;;;;;;19.60;14.32;;;20.20;79.70;;;;;;5015411;28;20034;-77
2021/09/09 08:21:19;;;;;;;21.15;14.82;;;20.30;79.70;;;;;;5013649;28;20045;-77
2021/09/09 08:23:45;;;;;;;18.58;13.82;;;20.30;79.60;;;;;;5014410;28;20076;-76
2021/09/09 08:26:12;;;;;;;18.45;13.43;;;20.40;79.40;;;;;;5015631;28;20518;-76
2021/09/09 08:28:38;;;;;;;20.00;13.77;;;20.40;79.00;;;;;;5014214;28;20061;-76
2021/09/09 08:31:04;;;;;;;23.90;14.57;;;20.50;78.70;;;;;;5031011;28;20028;-77
2021/09/09 08:33:31;;;;;;;17.77;13.85;;;20.60;78.50;;;;;;5015485;28;20037;-76
2021/09/09 08:35:57;;;;;;;17.13;13.20;;;20.70;78.40;;;;;;5030655;28;20032;-76
2021/09/09 08:38:22;;;;;;;17.25;13.30;;;20.70;78.30;;;;;;5014234;28;20124;-77
2021/09/09 08:40:51;;;;;;;16.52;12.90;;;20.80;77.80;;;;;;5030611;28;20038;-76
2021/09/09 08:43:17;;;;;;;16.63;12.20;;;20.90;77.50;;;;;;5013881;28;20022;-77
2021/09/09 08:45:52;;;;;;;17.40;12.20;;;21.00;77.20;;;;;;5013776;28;20069;-77
2021/09/09 08:48:18;;;;;;;16.55;12.50;;;21.10;76.70;;;;;;5013892;28;20036;-76
2021/09/09 08:50:44;;;;;;;17.13;12.45;;;21.20;76.40;;;;;;5015170;28;20022;-78
2021/09/09 08:53:11;;;;;;;19.73;12.07;;;21.20;76.30;;;;;;5015155;28;20034;-77
2021/09/09 08:55:37;;;;;;;16.15;11.63;;;21.30;76.10;;;;;;5013845;28;20053;-76
2021/09/09 08:58:05;;;;;;;15.13;10.98;;;21.40;75.80;;;;;;5014941;28;20466;-77
2021/09/09 09:00:31;;;;;;;15.48;11.52;;;21.50;75.40;;;;;;5009138;28;20057;-77
2021/09/09 09:02:58;;;;;;;15.02;10.57;;;21.60;75.10;;;;;;5006025;28;20031;-77
2021/09/09 09:05:25;;;;;;;14.07;10.65;;;21.70;74.80;;;;;;4997578;28;20048;-78
2021/09/09 09:07:59;;;;;;;15.43;11.95;;;21.90;74.40;;;;;;5014765;28;20022;-77
2021/09/09 09:10:25;;;;;;;14.25;10.55;;;22.10;74.00;;;;;;5014291;28;20029;-77
2021/09/09 09:12:51;;;;;;;13.25;10.45;;;22.30;73.50;;;;;;5015165;28;20025;-77
2021/09/09 09:15:24;;;;;;;14.35;10.93;;;22.40;73.20;;;;;;5014021;28;20026;-76
2021/09/09 09:18:00;;;;;;;12.57;9.90;;;22.60;72.90;;;;;;5014975;28;20026;-77
2021/09/09 09:20:39;;;;;;;14.85;10.77;;;22.80;72.50;;;;;;5013811;28;20116;-78
2021/09/09 09:23:15;;;;;;;13.05;9.45;;;22.90;72.10;;;;;;5006844;28;20179;-77
2021/09/09 09:25:46;;;;;;;11.52;8.68;;;23.10;72.00;;;;;;5006174;28;20025;-78
2021/09/09 09:28:13;;;;;;;12.57;10.52;;;23.20;71.70;;;;;;4994213;28;20038;-77
2021/09/09 09:30:40;;;;;;;13.55;10.25;;;23.30;71.40;;;;;;5000980;28;20041;-78
2021/09/09 09:33:06;;;;;;;15.07;10.55;;;23.50;71.10;;;;;;5008443;28;20031;-78
2021/09/09 09:35:31;;;;;;;14.13;9.50;;;23.70;70.70;;;;;;5012819;28;20045;-76
2021/09/09 09:38:05;;;;;;;13.30;9.45;;;23.90;70.10;;;;;;5014434;28;20165;-78
2021/09/09 09:40:42;;;;;;;12.55;8.73;;;24.10;69.30;;;;;;5014855;28;20022;-77
2021/09/09 09:43:10;;;;;;;13.52;9.32;;;24.30;68.70;;;;;;5014390;28;20076;-77
2021/09/09 09:45:46;;;;;;;11.23;8.48;;;24.50;68.00;;;;;;5013439;28;20463;-76
2021/09/09 09:48:24;;;;;;;13.20;7.97;;;24.60;67.60;;;;;;5013301;28;20026;-77
2021/09/09 09:50:50;;;;;;;12.18;7.82;;;24.80;67.10;;;;;;5014307;28;20413;-77
2021/09/09 09:53:17;;;;;;;12.07;8.48;;;25.00;66.30;;;;;;5029375;28;20029;-77
2021/09/09 09:55:44;;;;;;;15.48;7.05;;;25.10;65.10;;;;;;5014004;28;20014;-77
2021/09/09 09:58:10;;;;;;;11.98;7.97;;;25.20;64.50;;;;;;5004638;28;20505;-76
2021/09/09 10:00:37;;;;;;;13.32;8.10;;;25.30;64.20;;;;;;5009443;28;20085;-78
2021/09/09 10:03:03;;;;;;;14.73;8.60;;;25.50;63.80;;;;;;5012972;28;20026;-76
2021/09/09 10:05:32;;;;;;;11.55;8.02;;;25.60;63.30;;;;;;5012914;28;20038;-77
2021/09/09 10:07:59;;;;;;;11.98;7.72;;;25.70;63.20;;;;;;5008318;28;20061;-78
2021/09/09 10:10:25;;;;;;;14.35;8.30;;;25.90;62.90;;;;;;5027153;28;20022;-77
2021/09/09 10:12:52;;;;;;;12.23;8.98;;;26.10;62.40;;;;;;5008885;28;20041;-76
2021/09/09 10:15:20;;;;;;;9.18;7.03;;;26.50;62.40;;;;;;5013720;28;20050;-75
2021/09/09 10:17:48;;;;;;;12.50;8.43;;;26.80;61.70;;;;;;5013724;28;20037;-77
2021/09/09 10:20:29;;;;;;;10.77;7.40;;;27.30;61.10;;;;;;5012415;28;20386;-76
2021/09/09 10:23:03;;;;;;;10.73;7.78;;;27.90;60.40;;;;;;5028578;28;20050;-76
2021/09/09 10:25:53;;;;;;;13.70;7.43;;;28.50;59.70;;;;;;5013647;28;20084;-76
2021/09/09 10:31:08;;;;;;;11.60;8.07;;;29.70;56.60;;;;;;5013556;28;20525;-77
2021/09/09 10:33:35;;;;;;;12.93;7.95;;;30.30;56.50;;;;;;5028722;28;20029;-78
2021/09/09 10:36:01;;;;;;;9.95;8.10;;;30.60;56.20;;;;;;5013282;28;20101;-76
2021/09/09 10:38:32;;;;;;;9.57;7.95;;;30.90;54.80;;;;;;5013420;28;20109;-76
2021/09/09 10:41:01;;;;;;;17.15;9.82;;;31.30;53.80;;;;;;5012046;28;20033;-80
2021/09/09 10:43:26;;;;;;;12.35;9.00;;;31.60;52.70;;;;;;5012844;28;20382;-76
2021/09/09 10:46:04;;;;;;;10.73;8.23;;;31.90;51.90;;;;;;5013449;28;20072;-76
2021/09/09 10:48:31;;;;;;;10.55;8.13;;;32.20;51.10;;;;;;5011989;28;20030;-77
2021/09/09 10:51:02;;;;;;;11.75;8.68;;;32.50;50.80;;;;;;5013465;28;20469;-76
2021/09/09 10:53:40;;;;;;;10.40;8.68;;;32.80;50.10;;;;;;5013236;28;20087;-78
2021/09/09 10:56:17;;;;;;;11.63;9.30;;;33.10;49.00;;;;;;5013362;28;20026;-79
2021/09/09 10:58:44;;;;;;;14.70;9.27;;;33.60;48.80;;;;;;5012003;28;20493;-79
2021/09/09 11:01:11;;;;;;;11.68;8.38;;;34.00;48.30;;;;;;5013097;28;20077;-79
2021/09/09 11:03:42;;;;;;;9.60;6.60;;;34.40;47.60;;;;;;5012884;28;20030;-78
2021/09/09 11:06:12;;;;;;;8.23;6.05;;;34.80;46.70;;;;;;5013184;28;20030;-77
2021/09/09 11:08:40;;;;;;;7.75;6.22;;;35.10;46.00;;;;;;5011941;28;20458;-77
2021/09/09 11:11:08;;;;;;;9.57;7.32;;;35.40;45.40;;;;;;5008457;28;20026;-80
2021/09/09 11:13:36;;;;;;;7.75;6.10;;;35.70;44.70;;;;;;5004395;28;20022;-79
2021/09/09 11:16:18;;;;;;;8.77;6.43;;;36.00;44.20;;;;;;5013347;28;20033;-79
2021/09/09 11:18:44;;;;;;;8.48;6.00;;;36.00;43.60;;;;;;5028395;28;20022;-80
2021/09/09 11:21:09;;;;;;;8.02;6.10;;;35.90;43.70;;;;;;5013354;28;20042;-77
2021/09/09 11:23:36;;;;;;;9.52;7.07;;;35.70;43.60;;;;;;5013331;28;20061;-77
2021/09/09 11:26:10;;;;;;;12.13;7.43;;;35.60;43.70;;;;;;5013357;28;20486;-79
2021/09/09 11:28:36;;;;;;;9.52;7.57;;;35.50;43.60;;;;;;5011729;28;20034;-79
2021/09/09 11:31:06;;;;;;;9.30;7.75;;;35.50;43.70;;;;;;5012268;28;20025;-79
2021/09/09 11:33:31;;;;;;;11.77;8.25;;;35.40;43.70;;;;;;5011674;28;20053;-79
2021/09/09 11:36:02;;;;;;;11.00;8.73;;;35.30;43.70;;;;;;5007783;28;20057;-79
2021/09/09 11:38:31;;;;;;;10.40;8.65;;;35.10;43.50;;;;;;5007478;28;20099;-77
2021/09/09 11:41:08;;;;;;;11.88;8.23;;;34.80;43.70;;;;;;5013384;28;20119;-81
2021/09/09 11:43:34;;;;;;;13.63;8.77;;;34.80;44.30;;;;;;5012747;28;20516;-78
2021/09/09 11:45:59;;;;;;;11.23;9.05;;;34.80;44.40;;;;;;5011632;28;20030;-77
2021/09/09 11:48:25;;;;;;;13.25;9.15;;;34.80;44.30;;;;;;4995573;28;20041;-78
2021/09/09 11:50:51;;;;;;;13.25;8.82;;;34.60;44.50;;;;;;5010742;28;20034;-79
2021/09/09 11:53:24;;;;;;;13.23;9.30;;;34.40;44.90;;;;;;5009358;28;20026;-77
2021/09/09 11:55:50;;;;;;;12.95;10.25;;;34.20;45.30;;;;;;5012132;28;20022;-77
2021/09/09 11:58:33;;;;;;;10.20;8.13;;;34.10;45.60;;;;;;5012335;28;20034;-76
2021/09/09 12:01:04;;;;;;;10.88;8.73;;;33.90;45.80;;;;;;5003526;28;20038;-76
2021/09/09 12:03:31;;;;;;;13.50;10.02;;;33.80;46.10;;;;;;5014549;28;20442;-78
2021/09/09 12:05:57;;;;;;;12.23;10.70;;;33.60;46.50;;;;;;5031593;28;20022;-76
2021/09/09 12:08:23;;;;;;;13.07;10.32;;;33.40;46.90;;;;;;5030268;28;20052;-76
2021/09/09 12:10:49;;;;;;;13.32;9.18;;;33.20;47.10;;;;;;5015810;28;20030;-79
2021/09/09 12:13:30;;;;;;;14.23;10.50;;;33.10;47.40;;;;;;5014528;28;20080;-78
2021/09/09 12:16:07;;;;;;;11.93;8.55;;;33.20;47.50;;;;;;5014676;28;20462;-77
2021/09/09 12:18:33;;;;;;;12.40;8.30;;;33.30;47.50;;;;;;5015808;28;20030;-75
2021/09/09 12:21:15;;;;;;;10.85;8.85;;;33.40;47.40;;;;;;5015655;28;20542;-76
2021/09/09 12:24:03;;;;;;;12.00;8.40;;;33.60;47.30;;;;;;5014208;28;20058;-76
2021/09/09 12:26:29;;;;;;;10.52;8.95;;;33.80;47.20;;;;;;5015490;28;20034;-75
2021/09/09 12:28:54;;;;;;;11.05;8.05;;;33.90;47.20;;;;;;5015417;28;20038;-76
2021/09/09 12:31:35;;;;;;;12.40;8.68;;;34.10;47.10;;;;;;5000676;28;20026;-78